sensor_id;sensor_type;location;lat;lon;timestamp;P1;durP1;ratioP1;P2;durP2;ratioP2
68989;SDS011;56046;47.270;11.368;2022-07-23T00:01:19;14.52;;;9.73;;
68989;SDS011;56046;47.270;11.368;2022-07-23T00:03:45;15.13;;;8.60;;
68989;SDS011;56046;47.270;11.368;2022-07-23T00:06:10;12.57;;;8.17;;
68989;SDS011;56046;47.270;11.368;2022-07-23T00:08:35;14.83;;;8.20;;
68989;SDS011;56046;47.270;11.368;2022-07-23T00:11:00;13.67;;;9.57;;
68989;SDS011;56046;47.270;11.368;2022-07-23T00:13:26;15.17;;;9.57;;
68989;SDS011;56046;47.270;11.368;2022-07-23T00:15:51;15.50;;;9.63;;
68989;SDS011;56046;47.270;11.368;2022-07-23T00:18:16;14.43;;;9.57;;
68989;SDS011;56046;47.270;11.368;2022-07-23T00:20:42;18.17;;;10.63;;
68989;SDS011;56046;47.270;11.368;2022-07-23T00:23:07;12.27;;;7.77;;
68989;SDS011;56046;47.270;11.368;2022-07-23T00:25:32;12.97;;;8.40;;
68989;SDS011;56046;47.270;11.368;2022-07-23T00:27:58;16.57;;;9.33;;
68989;SDS011;56046;47.270;11.368;2022-07-23T00:30:24;15.07;;;8.35;;
68989;SDS011;56046;47.270;11.368;2022-07-23T00:32:50;14.38;;;9.73;;
68989;SDS011;56046;47.270;11.368;2022-07-23T00:35:16;18.03;;;9.80;;
68989;SDS011;56046;47.270;11.368;2022-07-23T00:37:44;18.27;;;10.70;;
68989;SDS011;56046;47.270;11.368;2022-07-23T00:40:09;16.73;;;10.27;;
68989;SDS011;56046;47.270;11.368;2022-07-23T00:42:35;22.35;;;12.43;;
68989;SDS011;56046;47.270;11.368;2022-07-23T00:45:00;20.70;;;12.90;;
68989;SDS011;56046;47.270;11.368;2022-07-23T00:47:25;22.23;;;11.93;;
68989;SDS011;56046;47.270;11.368;2022-07-23T00:49:51;20.83;;;11.20;;
68989;SDS011;56046;47.270;11.368;2022-07-23T00:52:16;19.93;;;12.07;;
68989;SDS011;56046;47.270;11.368;2022-07-23T00:54:41;16.93;;;10.50;;
68989;SDS011;56046;47.270;11.368;2022-07-23T00:57:07;18.87;;;11.70;;
68989;SDS011;56046;47.270;11.368;2022-07-23T00:59:32;19.53;;;11.27;;
68989;SDS011;56046;47.270;11.368;2022-07-23T01:01:57;18.57;;;10.77;;
68989;SDS011;56046;47.270;11.368;2022-07-23T01:04:22;17.77;;;11.00;;
68989;SDS011;56046;47.270;11.368;2022-07-23T01:06:48;18.20;;;9.90;;
68989;SDS011;56046;47.270;11.368;2022-07-23T01:09:13;16.83;;;10.63;;
68989;SDS011;56046;47.270;11.368;2022-07-23T01:11:39;16.20;;;9.13;;
68989;SDS011;56046;47.270;11.368;2022-07-23T01:14:08;15.17;;;10.17;;
68989;SDS011;56046;47.270;11.368;2022-07-23T01:16:33;16.77;;;9.85;;
68989;SDS011;56046;47.270;11.368;2022-07-23T01:18:58;15.90;;;10.00;;
68989;SDS011;56046;47.270;11.368;2022-07-23T01:21:23;17.37;;;10.60;;
68989;SDS011;56046;47.270;11.368;2022-07-23T01:23:49;18.45;;;12.15;;
68989;SDS011;56046;47.270;11.368;2022-07-23T01:26:14;17.87;;;10.80;;
68989;SDS011;56046;47.270;11.368;2022-07-23T01:28:42;18.80;;;12.07;;
68989;SDS011;56046;47.270;11.368;2022-07-23T01:31:07;18.85;;;11.57;;
68989;SDS011;56046;47.270;11.368;2022-07-23T01:33:32;20.20;;;11.83;;
68989;SDS011;56046;47.270;11.368;2022-07-23T01:35:58;17.57;;;11.40;;
68989;SDS011;56046;47.270;11.368;2022-07-23T01:38:23;21.77;;;12.30;;
68989;SDS011;56046;47.270;11.368;2022-07-23T01:40:48;17.20;;;11.80;;
68989;SDS011;56046;47.270;11.368;2022-07-23T01:43:13;19.57;;;11.23;;
68989;SDS011;56046;47.270;11.368;2022-07-23T01:45:38;19.10;;;12.30;;
68989;SDS011;56046;47.270;11.368;2022-07-23T01:48:04;23.40;;;12.60;;
68989;SDS011;56046;47.270;11.368;2022-07-23T01:50:29;20.35;;;13.05;;
68989;SDS011;56046;47.270;11.368;2022-07-23T01:52:55;21.53;;;12.37;;
68989;SDS011;56046;47.270;11.368;2022-07-23T01:55:20;19.90;;;12.87;;
68989;SDS011;56046;47.270;11.368;2022-07-23T01:57:45;16.83;;;11.20;;
68989;SDS011;56046;47.270;11.368;2022-07-23T02:00:11;18.03;;;11.80;;
68989;SDS011;56046;47.270;11.368;2022-07-23T02:02:36;19.35;;;11.43;;
68989;SDS011;56046;47.270;11.368;2022-07-23T02:05:01;20.13;;;12.23;;
68989;SDS011;56046;47.270;11.368;2022-07-23T02:07:27;18.07;;;11.37;;
68989;SDS011;56046;47.270;11.368;2022-07-23T02:09:52;16.30;;;10.90;;
68989;SDS011;56046;47.270;11.368;2022-07-23T02:12:17;17.73;;;11.67;;
68989;SDS011;56046;47.270;11.368;2022-07-23T02:14:42;19.03;;;11.60;;
68989;SDS011;56046;47.270;11.368;2022-07-23T02:17:08;18.53;;;12.03;;
68989;SDS011;56046;47.270;11.368;2022-07-23T02:19:33;18.43;;;11.27;;
68989;SDS011;56046;47.270;11.368;2022-07-23T02:21:58;22.87;;;12.63;;
68989;SDS011;56046;47.270;11.368;2022-07-23T02:24:23;18.33;;;11.47;;
68989;SDS011;56046;47.270;11.368;2022-07-23T02:26:49;15.67;;;10.80;;
68989;SDS011;56046;47.270;11.368;2022-07-23T02:29:14;13.50;;;9.70;;
68989;SDS011;56046;47.270;11.368;2022-07-23T02:31:39;14.27;;;9.80;;
68989;SDS011;56046;47.270;11.368;2022-07-23T02:34:05;15.87;;;10.53;;
68989;SDS011;56046;47.270;11.368;2022-07-23T02:36:30;17.10;;;11.25;;
68989;SDS011;56046;47.270;11.368;2022-07-23T02:38:55;17.43;;;10.63;;
68989;SDS011;56046;47.270;11.368;2022-07-23T02:41:21;16.50;;;11.00;;
68989;SDS011;56046;47.270;11.368;2022-07-23T02:43:47;16.53;;;10.97;;
68989;SDS011;56046;47.270;11.368;2022-07-23T02:46:12;15.93;;;10.87;;
68989;SDS011;56046;47.270;11.368;2022-07-23T02:48:37;16.87;;;10.67;;
68989;SDS011;56046;47.270;11.368;2022-07-23T02:51:03;16.90;;;11.27;;
68989;SDS011;56046;47.270;11.368;2022-07-23T02:53:28;18.23;;;10.77;;
68989;SDS011;56046;47.270;11.368;2022-07-23T02:55:53;15.93;;;10.87;;
68989;SDS011;56046;47.270;11.368;2022-07-23T02:58:18;17.80;;;11.73;;
68989;SDS011;56046;47.270;11.368;2022-07-23T03:00:44;17.70;;;11.40;;
68989;SDS011;56046;47.270;11.368;2022-07-23T03:03:09;17.43;;;11.77;;
68989;SDS011;56046;47.270;11.368;2022-07-23T03:05:34;17.63;;;11.02;;
68989;SDS011;56046;47.270;11.368;2022-07-23T03:08:00;18.53;;;11.70;;
68989;SDS011;56046;47.270;11.368;2022-07-23T03:10:25;19.77;;;11.07;;
68989;SDS011;56046;47.270;11.368;2022-07-23T03:12:50;21.00;;;10.67;;
68989;SDS011;56046;47.270;11.368;2022-07-23T03:15:15;18.63;;;11.07;;
68989;SDS011;56046;47.270;11.368;2022-07-23T03:17:41;20.00;;;12.27;;
68989;SDS011;56046;47.270;11.368;2022-07-23T03:20:06;21.87;;;12.60;;
68989;SDS011;56046;47.270;11.368;2022-07-23T03:22:32;21.70;;;12.75;;
68989;SDS011;56046;47.270;11.368;2022-07-23T03:24:57;19.37;;;12.23;;
68989;SDS011;56046;47.270;11.368;2022-07-23T03:27:26;20.93;;;12.07;;
68989;SDS011;56046;47.270;11.368;2022-07-23T03:29:52;24.13;;;13.35;;
68989;SDS011;56046;47.270;11.368;2022-07-23T03:32:18;23.23;;;12.63;;
68989;SDS011;56046;47.270;11.368;2022-07-23T03:34:43;20.80;;;13.02;;
68989;SDS011;56046;47.270;11.368;2022-07-23T03:37:08;21.90;;;12.50;;
68989;SDS011;56046;47.270;11.368;2022-07-23T03:39:33;26.47;;;14.57;;
68989;SDS011;56046;47.270;11.368;2022-07-23T03:41:59;25.30;;;14.77;;
68989;SDS011;56046;47.270;11.368;2022-07-23T03:44:24;21.67;;;12.27;;
68989;SDS011;56046;47.270;11.368;2022-07-23T03:46:49;18.63;;;12.30;;
68989;SDS011;56046;47.270;11.368;2022-07-23T03:49:14;23.70;;;13.87;;
68989;SDS011;56046;47.270;11.368;2022-07-23T03:51:40;23.90;;;14.03;;
68989;SDS011;56046;47.270;11.368;2022-07-23T03:54:05;20.23;;;12.17;;
68989;SDS011;56046;47.270;11.368;2022-07-23T03:56:30;18.90;;;11.70;;
68989;SDS011;56046;47.270;11.368;2022-07-23T03:58:56;22.23;;;11.63;;
68989;SDS011;56046;47.270;11.368;2022-07-23T04:01:21;21.83;;;12.20;;
68989;SDS011;56046;47.270;11.368;2022-07-23T04:03:46;21.13;;;10.93;;
68989;SDS011;56046;47.270;11.368;2022-07-23T04:06:11;15.47;;;10.07;;
68989;SDS011;56046;47.270;11.368;2022-07-23T04:08:37;18.37;;;10.20;;
68989;SDS011;56046;47.270;11.368;2022-07-23T04:11:02;16.50;;;9.20;;
68989;SDS011;56046;47.270;11.368;2022-07-23T04:13:27;17.07;;;9.37;;
68989;SDS011;56046;47.270;11.368;2022-07-23T04:15:52;22.47;;;9.40;;
68989;SDS011;56046;47.270;11.368;2022-07-23T04:18:17;23.90;;;10.17;;
68989;SDS011;56046;47.270;11.368;2022-07-23T04:20:43;18.63;;;9.37;;
68989;SDS011;56046;47.270;11.368;2022-07-23T04:23:09;14.00;;;7.88;;
68989;SDS011;56046;47.270;11.368;2022-07-23T04:25:37;28.92;;;11.10;;
68989;SDS011;56046;47.270;11.368;2022-07-23T04:28:03;100.53;;;14.33;;
68989;SDS011;56046;47.270;11.368;2022-07-23T04:30:28;12.85;;;7.88;;
68989;SDS011;56046;47.270;11.368;2022-07-23T04:32:53;14.00;;;7.73;;
68989;SDS011;56046;47.270;11.368;2022-07-23T04:35:19;21.07;;;7.90;;
68989;SDS011;56046;47.270;11.368;2022-07-23T04:37:44;13.40;;;7.17;;
68989;SDS011;56046;47.270;11.368;2022-07-23T04:40:10;9.63;;;6.43;;
68989;SDS011;56046;47.270;11.368;2022-07-23T04:42:35;13.32;;;7.60;;
68989;SDS011;56046;47.270;11.368;2022-07-23T04:45:01;15.07;;;8.70;;
68989;SDS011;56046;47.270;11.368;2022-07-23T04:47:26;16.23;;;8.50;;
68989;SDS011;56046;47.270;11.368;2022-07-23T04:49:51;12.40;;;6.80;;
68989;SDS011;56046;47.270;11.368;2022-07-23T04:52:16;17.57;;;8.27;;
68989;SDS011;56046;47.270;11.368;2022-07-23T04:54:42;14.60;;;8.43;;
68989;SDS011;56046;47.270;11.368;2022-07-23T04:57:07;18.20;;;10.07;;
68989;SDS011;56046;47.270;11.368;2022-07-23T04:59:32;25.30;;;12.47;;
68989;SDS011;56046;47.270;11.368;2022-07-23T05:01:57;24.03;;;13.67;;
68989;SDS011;56046;47.270;11.368;2022-07-23T05:04:23;23.47;;;13.80;;
68989;SDS011;56046;47.270;11.368;2022-07-23T05:06:48;18.80;;;11.00;;
68989;SDS011;56046;47.270;11.368;2022-07-23T05:09:13;18.03;;;10.07;;
68989;SDS011;56046;47.270;11.368;2022-07-23T05:11:38;15.43;;;9.90;;
68989;SDS011;56046;47.270;11.368;2022-07-23T05:14:03;11.70;;;7.53;;
68989;SDS011;56046;47.270;11.368;2022-07-23T05:16:29;12.03;;;8.13;;
68989;SDS011;56046;47.270;11.368;2022-07-23T05:18:54;14.50;;;8.83;;
68989;SDS011;56046;47.270;11.368;2022-07-23T05:21:19;13.53;;;8.77;;
68989;SDS011;56046;47.270;11.368;2022-07-23T05:23:45;16.13;;;9.43;;
68989;SDS011;56046;47.270;11.368;2022-07-23T05:26:10;15.40;;;9.65;;
68989;SDS011;56046;47.270;11.368;2022-07-23T05:28:35;13.03;;;7.70;;
68989;SDS011;56046;47.270;11.368;2022-07-23T05:31:01;14.13;;;9.47;;
68989;SDS011;56046;47.270;11.368;2022-07-23T05:33:26;14.63;;;7.83;;
68989;SDS011;56046;47.270;11.368;2022-07-23T05:35:51;10.13;;;6.10;;
68989;SDS011;56046;47.270;11.368;2022-07-23T05:38:16;9.33;;;6.20;;
68989;SDS011;56046;47.270;11.368;2022-07-23T05:40:42;12.43;;;6.73;;
68989;SDS011;56046;47.270;11.368;2022-07-23T05:43:07;11.13;;;7.07;;
68989;SDS011;56046;47.270;11.368;2022-07-23T05:45:32;9.73;;;6.00;;
68989;SDS011;56046;47.270;11.368;2022-07-23T05:47:57;10.67;;;6.77;;
68989;SDS011;56046;47.270;11.368;2022-07-23T05:50:23;12.23;;;7.30;;
68989;SDS011;56046;47.270;11.368;2022-07-23T05:52:48;12.10;;;7.67;;
68989;SDS011;56046;47.270;11.368;2022-07-23T05:55:13;12.53;;;7.97;;
68989;SDS011;56046;47.270;11.368;2022-07-23T05:57:39;11.33;;;7.23;;
68989;SDS011;56046;47.270;11.368;2022-07-23T06:00:05;12.43;;;7.77;;
68989;SDS011;56046;47.270;11.368;2022-07-23T06:02:30;11.15;;;7.13;;
68989;SDS011;56046;47.270;11.368;2022-07-23T06:04:56;13.30;;;8.20;;
68989;SDS011;56046;47.270;11.368;2022-07-23T06:07:21;11.93;;;7.33;;
68989;SDS011;56046;47.270;11.368;2022-07-23T06:09:46;12.13;;;6.85;;
68989;SDS011;56046;47.270;11.368;2022-07-23T06:12:13;13.00;;;7.73;;
68989;SDS011;56046;47.270;11.368;2022-07-23T06:14:39;14.50;;;8.73;;
68989;SDS011;56046;47.270;11.368;2022-07-23T06:17:04;13.77;;;8.27;;
68989;SDS011;56046;47.270;11.368;2022-07-23T06:19:29;14.00;;;8.30;;
68989;SDS011;56046;47.270;11.368;2022-07-23T06:21:54;16.90;;;10.60;;
68989;SDS011;56046;47.270;11.368;2022-07-23T06:24:20;18.17;;;10.67;;
68989;SDS011;56046;47.270;11.368;2022-07-23T06:26:45;17.10;;;10.70;;
68989;SDS011;56046;47.270;11.368;2022-07-23T06:29:10;16.17;;;9.87;;
68989;SDS011;56046;47.270;11.368;2022-07-23T06:31:36;14.73;;;9.63;;
68989;SDS011;56046;47.270;11.368;2022-07-23T06:34:01;13.40;;;7.87;;
68989;SDS011;56046;47.270;11.368;2022-07-23T06:36:26;14.73;;;8.80;;
68989;SDS011;56046;47.270;11.368;2022-07-23T06:38:52;15.70;;;10.15;;
68989;SDS011;56046;47.270;11.368;2022-07-23T06:41:17;13.70;;;8.67;;
68989;SDS011;56046;47.270;11.368;2022-07-23T06:43:42;11.97;;;8.67;;
68989;SDS011;56046;47.270;11.368;2022-07-23T06:46:07;13.50;;;8.47;;
68989;SDS011;56046;47.270;11.368;2022-07-23T06:48:33;12.37;;;7.60;;
68989;SDS011;56046;47.270;11.368;2022-07-23T06:51:00;11.57;;;7.30;;
68989;SDS011;56046;47.270;11.368;2022-07-23T06:53:25;12.40;;;7.87;;
68989;SDS011;56046;47.270;11.368;2022-07-23T06:55:51;14.27;;;9.10;;
68989;SDS011;56046;47.270;11.368;2022-07-23T06:58:16;14.63;;;8.77;;
68989;SDS011;56046;47.270;11.368;2022-07-23T07:00:41;13.63;;;8.77;;
68989;SDS011;56046;47.270;11.368;2022-07-23T07:03:06;15.37;;;9.50;;
68989;SDS011;56046;47.270;11.368;2022-07-23T07:05:32;14.40;;;9.47;;
68989;SDS011;56046;47.270;11.368;2022-07-23T07:07:57;14.60;;;10.00;;
68989;SDS011;56046;47.270;11.368;2022-07-23T07:10:22;15.20;;;8.33;;
68989;SDS011;56046;47.270;11.368;2022-07-23T07:12:47;12.90;;;8.70;;
68989;SDS011;56046;47.270;11.368;2022-07-23T07:15:13;13.40;;;8.47;;
68989;SDS011;56046;47.270;11.368;2022-07-23T07:17:38;12.80;;;8.60;;
68989;SDS011;56046;47.270;11.368;2022-07-23T07:20:04;11.57;;;7.88;;
68989;SDS011;56046;47.270;11.368;2022-07-23T07:22:30;11.57;;;7.77;;
68989;SDS011;56046;47.270;11.368;2022-07-23T07:24:55;13.20;;;7.63;;
68989;SDS011;56046;47.270;11.368;2022-07-23T07:27:20;11.27;;;7.70;;
68989;SDS011;56046;47.270;11.368;2022-07-23T07:29:45;9.63;;;6.90;;
68989;SDS011;56046;47.270;11.368;2022-07-23T07:32:11;12.10;;;8.13;;
68989;SDS011;56046;47.270;11.368;2022-07-23T07:34:36;13.00;;;7.97;;
68989;SDS011;56046;47.270;11.368;2022-07-23T07:37:01;9.77;;;6.37;;
68989;SDS011;56046;47.270;11.368;2022-07-23T07:39:27;10.97;;;6.43;;
68989;SDS011;56046;47.270;11.368;2022-07-23T07:41:52;10.90;;;7.80;;
68989;SDS011;56046;47.270;11.368;2022-07-23T07:44:17;9.57;;;6.23;;
68989;SDS011;56046;47.270;11.368;2022-07-23T07:46:43;10.50;;;6.63;;
68989;SDS011;56046;47.270;11.368;2022-07-23T07:49:08;11.40;;;8.17;;
68989;SDS011;56046;47.270;11.368;2022-07-23T07:51:33;10.50;;;7.40;;
68989;SDS011;56046;47.270;11.368;2022-07-23T07:53:59;10.80;;;7.57;;
68989;SDS011;56046;47.270;11.368;2022-07-23T07:56:24;10.50;;;7.03;;
68989;SDS011;56046;47.270;11.368;2022-07-23T07:58:49;9.70;;;7.03;;
68989;SDS011;56046;47.270;11.368;2022-07-23T08:01:15;10.80;;;6.90;;
68989;SDS011;56046;47.270;11.368;2022-07-23T08:03:40;9.77;;;7.00;;
68989;SDS011;56046;47.270;11.368;2022-07-23T08:06:05;9.83;;;6.77;;
68989;SDS011;56046;47.270;11.368;2022-07-23T08:08:31;11.23;;;7.13;;
68989;SDS011;56046;47.270;11.368;2022-07-23T08:10:56;11.00;;;7.13;;
68989;SDS011;56046;47.270;11.368;2022-07-23T08:13:21;10.70;;;6.33;;
68989;SDS011;56046;47.270;11.368;2022-07-23T08:15:46;9.37;;;5.90;;
68989;SDS011;56046;47.270;11.368;2022-07-23T08:18:12;8.10;;;5.60;;
68989;SDS011;56046;47.270;11.368;2022-07-23T08:20:37;9.20;;;6.50;;
68989;SDS011;56046;47.270;11.368;2022-07-23T08:23:03;8.73;;;5.70;;
68989;SDS011;56046;47.270;11.368;2022-07-23T08:25:33;10.15;;;6.82;;
68989;SDS011;56046;47.270;11.368;2022-07-23T08:27:59;11.93;;;7.90;;
68989;SDS011;56046;47.270;11.368;2022-07-23T08:30:25;10.00;;;7.38;;
68989;SDS011;56046;47.270;11.368;2022-07-23T08:35:16;14.57;;;8.90;;
68989;SDS011;56046;47.270;11.368;2022-07-23T08:37:42;12.50;;;8.40;;
68989;SDS011;56046;47.270;11.368;2022-07-23T08:40:07;10.67;;;7.67;;
68989;SDS011;56046;47.270;11.368;2022-07-23T08:42:33;12.43;;;7.37;;
68989;SDS011;56046;47.270;11.368;2022-07-23T08:45:00;11.73;;;6.47;;
68989;SDS011;56046;47.270;11.368;2022-07-23T08:47:25;11.37;;;7.40;;
68989;SDS011;56046;47.270;11.368;2022-07-23T08:49:51;9.63;;;7.20;;
68989;SDS011;56046;47.270;11.368;2022-07-23T08:52:16;9.10;;;7.00;;
68989;SDS011;56046;47.270;11.368;2022-07-23T08:54:41;8.87;;;6.90;;
68989;SDS011;56046;47.270;11.368;2022-07-23T08:57:07;8.38;;;5.90;;
68989;SDS011;56046;47.270;11.368;2022-07-23T08:59:33;9.37;;;6.90;;
68989;SDS011;56046;47.270;11.368;2022-07-23T09:01:58;9.77;;;6.50;;
68989;SDS011;56046;47.270;11.368;2022-07-23T09:04:25;10.45;;;6.78;;
68989;SDS011;56046;47.270;11.368;2022-07-23T09:06:50;9.03;;;7.00;;
68989;SDS011;56046;47.270;11.368;2022-07-23T09:09:16;9.20;;;6.83;;
68989;SDS011;56046;47.270;11.368;2022-07-23T09:11:43;9.63;;;6.57;;
68989;SDS011;56046;47.270;11.368;2022-07-23T09:14:10;9.97;;;6.70;;
68989;SDS011;56046;47.270;11.368;2022-07-23T09:16:35;10.67;;;6.90;;
68989;SDS011;56046;47.270;11.368;2022-07-23T09:21:27;10.60;;;6.90;;
68989;SDS011;56046;47.270;11.368;2022-07-23T09:29:06;9.55;;;6.90;;
68989;SDS011;56046;47.270;11.368;2022-07-23T09:31:33;10.60;;;6.38;;
68989;SDS011;56046;47.270;11.368;2022-07-23T09:34:11;9.63;;;7.13;;
68989;SDS011;56046;47.270;11.368;2022-07-23T09:36:37;9.57;;;6.23;;
68989;SDS011;56046;47.270;11.368;2022-07-23T09:39:02;6.80;;;5.53;;
68989;SDS011;56046;47.270;11.368;2022-07-23T09:41:38;9.97;;;5.67;;
68989;SDS011;56046;47.270;11.368;2022-07-23T09:44:11;8.82;;;6.07;;
68989;SDS011;56046;47.270;11.368;2022-07-23T09:46:37;8.63;;;7.00;;
68989;SDS011;56046;47.270;11.368;2022-07-23T09:49:11;9.77;;;6.87;;
68989;SDS011;56046;47.270;11.368;2022-07-23T09:52:10;12.18;;;6.68;;
68989;SDS011;56046;47.270;11.368;2022-07-23T09:56:55;9.63;;;6.70;;
68989;SDS011;56046;47.270;11.368;2022-07-23T09:59:22;8.50;;;6.73;;
68989;SDS011;56046;47.270;11.368;2022-07-23T10:01:48;8.20;;;5.97;;
68989;SDS011;56046;47.270;11.368;2022-07-23T10:04:13;8.37;;;6.37;;
68989;SDS011;56046;47.270;11.368;2022-07-23T10:06:39;9.15;;;6.38;;
68989;SDS011;56046;47.270;11.368;2022-07-23T10:09:04;8.03;;;5.80;;
68989;SDS011;56046;47.270;11.368;2022-07-23T10:11:29;8.07;;;6.37;;
68989;SDS011;56046;47.270;11.368;2022-07-23T10:13:55;9.82;;;6.78;;
68989;SDS011;56046;47.270;11.368;2022-07-23T10:16:22;8.48;;;6.32;;
68989;SDS011;56046;47.270;11.368;2022-07-23T10:18:48;9.10;;;7.27;;
68989;SDS011;56046;47.270;11.368;2022-07-23T10:21:16;8.33;;;6.23;;
68989;SDS011;56046;47.270;11.368;2022-07-23T10:23:45;8.70;;;6.25;;
68989;SDS011;56046;47.270;11.368;2022-07-23T10:26:24;8.27;;;6.30;;
68989;SDS011;56046;47.270;11.368;2022-07-23T10:39:05;9.60;;;6.97;;
68989;SDS011;56046;47.270;11.368;2022-07-23T10:41:34;9.13;;;7.32;;
68989;SDS011;56046;47.270;11.368;2022-07-23T10:44:12;8.10;;;6.22;;
68989;SDS011;56046;47.270;11.368;2022-07-23T10:49:40;7.10;;;5.50;;
68989;SDS011;56046;47.270;11.368;2022-07-23T10:52:25;8.00;;;6.07;;
68989;SDS011;56046;47.270;11.368;2022-07-23T10:54:54;7.60;;;5.90;;
68989;SDS011;56046;47.270;11.368;2022-07-23T10:57:24;8.00;;;5.93;;
68989;SDS011;56046;47.270;11.368;2022-07-23T11:02:30;8.07;;;5.78;;
68989;SDS011;56046;47.270;11.368;2022-07-23T11:04:59;9.60;;;5.85;;
68989;SDS011;56046;47.270;11.368;2022-07-23T11:07:24;6.97;;;5.90;;
68989;SDS011;56046;47.270;11.368;2022-07-23T11:09:50;8.70;;;6.50;;
68989;SDS011;56046;47.270;11.368;2022-07-23T11:17:35;8.38;;;5.72;;
68989;SDS011;56046;47.270;11.368;2022-07-23T11:22:36;8.07;;;6.17;;
68989;SDS011;56046;47.270;11.368;2022-07-23T11:25:02;8.00;;;6.53;;
68989;SDS011;56046;47.270;11.368;2022-07-23T11:32:53;7.43;;;6.03;;
68989;SDS011;56046;47.270;11.368;2022-07-23T11:35:23;8.10;;;6.32;;
68989;SDS011;56046;47.270;11.368;2022-07-23T11:37:48;8.57;;;6.25;;
68989;SDS011;56046;47.270;11.368;2022-07-23T11:40:15;7.83;;;5.63;;
68989;SDS011;56046;47.270;11.368;2022-07-23T11:45:37;8.70;;;6.95;;
68989;SDS011;56046;47.270;11.368;2022-07-23T11:48:03;8.23;;;6.40;;
68989;SDS011;56046;47.270;11.368;2022-07-23T11:50:29;8.30;;;6.22;;
68989;SDS011;56046;47.270;11.368;2022-07-23T11:52:54;7.53;;;5.53;;
68989;SDS011;56046;47.270;11.368;2022-07-23T11:55:20;8.60;;;6.45;;
68989;SDS011;56046;47.270;11.368;2022-07-23T11:57:45;7.17;;;5.83;;
68989;SDS011;56046;47.270;11.368;2022-07-23T12:00:20;7.73;;;6.67;;
68989;SDS011;56046;47.270;11.368;2022-07-23T12:02:50;7.75;;;5.90;;
68989;SDS011;56046;47.270;11.368;2022-07-23T12:05:17;7.20;;;5.60;;
68989;SDS011;56046;47.270;11.368;2022-07-23T12:07:44;7.20;;;5.80;;
68989;SDS011;56046;47.270;11.368;2022-07-23T12:15:06;7.37;;;6.40;;
68989;SDS011;56046;47.270;11.368;2022-07-23T12:17:33;6.78;;;5.93;;
68989;SDS011;56046;47.270;11.368;2022-07-23T12:19:59;7.72;;;5.75;;
68989;SDS011;56046;47.270;11.368;2022-07-23T12:22:25;6.78;;;5.65;;
68989;SDS011;56046;47.270;11.368;2022-07-23T12:27:22;7.93;;;5.57;;
68989;SDS011;56046;47.270;11.368;2022-07-23T12:29:48;7.23;;;5.87;;
68989;SDS011;56046;47.270;11.368;2022-07-23T12:32:20;8.10;;;5.37;;
68989;SDS011;56046;47.270;11.368;2022-07-23T12:34:45;7.43;;;5.43;;
68989;SDS011;56046;47.270;11.368;2022-07-23T12:37:31;7.63;;;4.87;;
68989;SDS011;56046;47.270;11.368;2022-07-23T12:39:56;7.03;;;5.60;;
68989;SDS011;56046;47.270;11.368;2022-07-23T12:42:22;6.03;;;4.63;;
68989;SDS011;56046;47.270;11.368;2022-07-23T12:45:08;8.18;;;6.20;;
68989;SDS011;56046;47.270;11.368;2022-07-23T12:47:52;6.93;;;5.82;;
68989;SDS011;56046;47.270;11.368;2022-07-23T12:53:07;8.30;;;5.88;;
68989;SDS011;56046;47.270;11.368;2022-07-23T12:55:33;8.87;;;6.30;;
68989;SDS011;56046;47.270;11.368;2022-07-23T12:58:05;6.67;;;5.10;;
68989;SDS011;56046;47.270;11.368;2022-07-23T13:00:31;7.25;;;5.10;;
68989;SDS011;56046;47.270;11.368;2022-07-23T13:02:56;6.88;;;5.60;;
68989;SDS011;56046;47.270;11.368;2022-07-23T13:05:22;7.73;;;6.00;;
68989;SDS011;56046;47.270;11.368;2022-07-23T13:07:47;6.47;;;5.17;;
68989;SDS011;56046;47.270;11.368;2022-07-23T13:10:12;7.87;;;5.47;;
68989;SDS011;56046;47.270;11.368;2022-07-23T13:12:38;6.88;;;4.78;;
68989;SDS011;56046;47.270;11.368;2022-07-23T13:15:03;7.47;;;5.23;;
68989;SDS011;56046;47.270;11.368;2022-07-23T13:17:29;5.87;;;4.07;;
68989;SDS011;56046;47.270;11.368;2022-07-23T13:19:54;7.57;;;5.83;;
68989;SDS011;56046;47.270;11.368;2022-07-23T13:22:19;6.80;;;4.70;;
68989;SDS011;56046;47.270;11.368;2022-07-23T13:24:44;6.73;;;4.87;;
68989;SDS011;56046;47.270;11.368;2022-07-23T13:27:09;6.53;;;4.77;;
68989;SDS011;56046;47.270;11.368;2022-07-23T13:29:35;6.40;;;5.03;;
68989;SDS011;56046;47.270;11.368;2022-07-23T13:32:00;7.20;;;4.60;;
68989;SDS011;56046;47.270;11.368;2022-07-23T13:34:25;6.03;;;5.30;;
68989;SDS011;56046;47.270;11.368;2022-07-23T13:36:50;7.20;;;5.53;;
68989;SDS011;56046;47.270;11.368;2022-07-23T13:39:16;6.43;;;4.90;;
68989;SDS011;56046;47.270;11.368;2022-07-23T13:41:41;6.75;;;5.00;;
68989;SDS011;56046;47.270;11.368;2022-07-23T13:44:06;5.27;;;4.03;;
68989;SDS011;56046;47.270;11.368;2022-07-23T13:46:32;6.80;;;4.90;;
68989;SDS011;56046;47.270;11.368;2022-07-23T13:48:57;6.47;;;5.00;;
68989;SDS011;56046;47.270;11.368;2022-07-23T13:51:22;5.83;;;4.20;;
68989;SDS011;56046;47.270;11.368;2022-07-23T13:53:49;7.53;;;4.97;;
68989;SDS011;56046;47.270;11.368;2022-07-23T13:56:14;7.13;;;4.97;;
68989;SDS011;56046;47.270;11.368;2022-07-23T13:58:39;7.30;;;5.00;;
68989;SDS011;56046;47.270;11.368;2022-07-23T14:01:05;6.63;;;5.07;;
68989;SDS011;56046;47.270;11.368;2022-07-23T14:03:30;7.63;;;4.77;;
68989;SDS011;56046;47.270;11.368;2022-07-23T14:05:56;19.33;;;6.50;;
68989;SDS011;56046;47.270;11.368;2022-07-23T14:08:21;12.70;;;5.80;;
68989;SDS011;56046;47.270;11.368;2022-07-23T14:10:46;12.03;;;6.03;;
68989;SDS011;56046;47.270;11.368;2022-07-23T14:13:11;10.00;;;5.60;;
68989;SDS011;56046;47.270;11.368;2022-07-23T14:15:37;11.30;;;7.13;;
68989;SDS011;56046;47.270;11.368;2022-07-23T14:18:05;11.13;;;7.13;;
68989;SDS011;56046;47.270;11.368;2022-07-23T14:20:30;10.80;;;6.97;;
68989;SDS011;56046;47.270;11.368;2022-07-23T14:22:55;10.77;;;7.87;;
68989;SDS011;56046;47.270;11.368;2022-07-23T14:25:22;9.67;;;6.20;;
68989;SDS011;56046;47.270;11.368;2022-07-23T14:27:48;9.25;;;6.03;;
68989;SDS011;56046;47.270;11.368;2022-07-23T14:30:13;7.83;;;5.23;;
68989;SDS011;56046;47.270;11.368;2022-07-23T14:32:39;8.23;;;5.60;;
68989;SDS011;56046;47.270;11.368;2022-07-23T14:35:05;9.60;;;5.77;;
68989;SDS011;56046;47.270;11.368;2022-07-23T14:37:30;8.47;;;5.77;;
68989;SDS011;56046;47.270;11.368;2022-07-23T14:39:56;7.87;;;5.17;;
68989;SDS011;56046;47.270;11.368;2022-07-23T14:42:21;9.77;;;6.23;;
68989;SDS011;56046;47.270;11.368;2022-07-23T14:44:47;7.30;;;5.47;;
68989;SDS011;56046;47.270;11.368;2022-07-23T14:47:12;7.87;;;5.30;;
68989;SDS011;56046;47.270;11.368;2022-07-23T14:49:37;9.83;;;6.10;;
68989;SDS011;56046;47.270;11.368;2022-07-23T14:52:03;9.47;;;6.20;;
68989;SDS011;56046;47.270;11.368;2022-07-23T14:54:29;8.18;;;6.05;;
68989;SDS011;56046;47.270;11.368;2022-07-23T14:56:54;9.37;;;6.10;;
68989;SDS011;56046;47.270;11.368;2022-07-23T14:59:20;8.15;;;6.25;;
68989;SDS011;56046;47.270;11.368;2022-07-23T15:01:45;8.80;;;6.10;;
68989;SDS011;56046;47.270;11.368;2022-07-23T15:04:10;8.93;;;6.13;;
68989;SDS011;56046;47.270;11.368;2022-07-23T15:06:36;8.55;;;5.85;;
68989;SDS011;56046;47.270;11.368;2022-07-23T15:09:01;7.67;;;6.00;;
68989;SDS011;56046;47.270;11.368;2022-07-23T15:11:27;8.90;;;6.07;;